sensor_id;sensor_type;location;lat;lon;timestamp;temperature;humidity
30628;DHT22;17394;50.890;4.724;2024-02-16T00:00:27;13.20;99.90
30628;DHT22;17394;50.890;4.724;2024-02-16T00:02:53;13.10;99.90
30628;DHT22;17394;50.890;4.724;2024-02-16T00:05:19;13.10;99.90
30628;DHT22;17394;50.890;4.724;2024-02-16T00:07:45;13.00;99.90
30628;DHT22;17394;50.890;4.724;2024-02-16T00:10:11;12.90;99.90
30628;DHT22;17394;50.890;4.724;2024-02-16T00:12:40;12.90;99.90
30628;DHT22;17394;50.890;4.724;2024-02-16T00:15:07;12.90;99.90
30628;DHT22;17394;50.890;4.724;2024-02-16T00:17:33;12.80;99.90
30628;DHT22;17394;50.890;4.724;2024-02-16T00:19:59;12.80;99.90
30628;DHT22;17394;50.890;4.724;2024-02-16T00:22:25;12.70;99.90
30628;DHT22;17394;50.890;4.724;2024-02-16T00:24:52;12.70;99.90
30628;DHT22;17394;50.890;4.724;2024-02-16T00:27:18;12.60;99.90
30628;DHT22;17394;50.890;4.724;2024-02-16T00:29:44;12.60;99.90
30628;DHT22;17394;50.890;4.724;2024-02-16T00:32:12;12.60;99.90
30628;DHT22;17394;50.890;4.724;2024-02-16T00:34:38;12.60;99.90
30628;DHT22;17394;50.890;4.724;2024-02-16T00:37:07;12.60;99.90
30628;DHT22;17394;50.890;4.724;2024-02-16T00:39:36;12.60;99.90
30628;DHT22;17394;50.890;4.724;2024-02-16T00:42:03;12.60;99.90
30628;DHT22;17394;50.890;4.724;2024-02-16T00:44:28;12.60;99.90
30628;DHT22;17394;50.890;4.724;2024-02-16T00:46:54;12.50;99.90
30628;DHT22;17394;50.890;4.724;2024-02-16T00:49:20;12.50;99.90
30628;DHT22;17394;50.890;4.724;2024-02-16T00:51:46;12.50;99.90
30628;DHT22;17394;50.890;4.724;2024-02-16T00:54:12;12.50;99.90
30628;DHT22;17394;50.890;4.724;2024-02-16T00:56:38;12.40;99.90
30628;DHT22;17394;50.890;4.724;2024-02-16T00:59:04;12.50;99.90
30628;DHT22;17394;50.890;4.724;2024-02-16T01:01:30;12.40;99.90
30628;DHT22;17394;50.890;4.724;2024-02-16T01:03:56;12.40;99.90
30628;DHT22;17394;50.890;4.724;2024-02-16T01:06:22;12.40;99.90
30628;DHT22;17394;50.890;4.724;2024-02-16T01:08:48;12.40;99.90
30628;DHT22;17394;50.890;4.724;2024-02-16T01:11:14;12.40;99.90
30628;DHT22;17394;50.890;4.724;2024-02-16T01:13:40;12.40;99.90
30628;DHT22;17394;50.890;4.724;2024-02-16T01:16:06;12.40;99.90
30628;DHT22;17394;50.890;4.724;2024-02-16T01:18:33;12.40;99.90
30628;DHT22;17394;50.890;4.724;2024-02-16T01:21:02;12.40;99.90
30628;DHT22;17394;50.890;4.724;2024-02-16T01:23:29;12.30;99.90
30628;DHT22;17394;50.890;4.724;2024-02-16T01:25:54;12.30;99.90
30628;DHT22;17394;50.890;4.724;2024-02-16T01:28:20;12.30;99.90
30628;DHT22;17394;50.890;4.724;2024-02-16T01:30:47;12.30;99.90
30628;DHT22;17394;50.890;4.724;2024-02-16T01:33:13;12.20;99.90
30628;DHT22;17394;50.890;4.724;2024-02-16T01:35:39;12.20;99.90
30628;DHT22;17394;50.890;4.724;2024-02-16T01:38:05;12.20;99.90
30628;DHT22;17394;50.890;4.724;2024-02-16T01:40:31;12.20;99.90
30628;DHT22;17394;50.890;4.724;2024-02-16T01:42:57;12.30;99.90
30628;DHT22;17394;50.890;4.724;2024-02-16T01:45:23;12.20;99.90
30628;DHT22;17394;50.890;4.724;2024-02-16T01:47:53;12.20;99.90
30628;DHT22;17394;50.890;4.724;2024-02-16T01:50:21;12.20;99.90
30628;DHT22;17394;50.890;4.724;2024-02-16T01:52:48;12.20;99.90
30628;DHT22;17394;50.890;4.724;2024-02-16T01:55:15;12.20;99.90
30628;DHT22;17394;50.890;4.724;2024-02-16T01:57:47;12.20;99.90
30628;DHT22;17394;50.890;4.724;2024-02-16T02:00:14;12.20;99.90
30628;DHT22;17394;50.890;4.724;2024-02-16T02:02:41;12.20;99.90
30628;DHT22;17394;50.890;4.724;2024-02-16T02:05:09;12.30;99.90
30628;DHT22;17394;50.890;4.724;2024-02-16T02:07:35;12.30;99.90
30628;DHT22;17394;50.890;4.724;2024-02-16T02:10:01;12.30;99.90
30628;DHT22;17394;50.890;4.724;2024-02-16T02:12:27;12.30;99.90
30628;DHT22;17394;50.890;4.724;2024-02-16T02:14:53;12.30;99.90
30628;DHT22;17394;50.890;4.724;2024-02-16T02:17:19;12.40;99.90
30628;DHT22;17394;50.890;4.724;2024-02-16T02:19:49;12.40;99.90
30628;DHT22;17394;50.890;4.724;2024-02-16T02:22:19;12.40;99.90
30628;DHT22;17394;50.890;4.724;2024-02-16T02:24:46;12.40;99.90
30628;DHT22;17394;50.890;4.724;2024-02-16T02:27:13;12.40;99.90
30628;DHT22;17394;50.890;4.724;2024-02-16T02:29:39;12.40;99.90
30628;DHT22;17394;50.890;4.724;2024-02-16T02:32:06;12.40;99.90
30628;DHT22;17394;50.890;4.724;2024-02-16T02:34:32;12.40;99.90
30628;DHT22;17394;50.890;4.724;2024-02-16T02:36:59;12.30;99.90
30628;DHT22;17394;50.890;4.724;2024-02-16T02:39:25;12.40;99.90
30628;DHT22;17394;50.890;4.724;2024-02-16T02:41:51;12.30;99.90
30628;DHT22;17394;50.890;4.724;2024-02-16T02:44:18;12.40;99.90
30628;DHT22;17394;50.890;4.724;2024-02-16T02:46:45;12.40;99.90
30628;DHT22;17394;50.890;4.724;2024-02-16T02:49:11;12.40;99.90
30628;DHT22;17394;50.890;4.724;2024-02-16T02:51:36;12.40;99.90
30628;DHT22;17394;50.890;4.724;2024-02-16T02:54:02;12.50;99.90
30628;DHT22;17394;50.890;4.724;2024-02-16T02:56:28;12.50;99.90
30628;DHT22;17394;50.890;4.724;2024-02-16T02:58:54;12.60;99.90
30628;DHT22;17394;50.890;4.724;2024-02-16T03:01:19;12.60;99.90
30628;DHT22;17394;50.890;4.724;2024-02-16T03:03:46;12.60;99.90
30628;DHT22;17394;50.890;4.724;2024-02-16T03:06:12;12.50;99.90
30628;DHT22;17394;50.890;4.724;2024-02-16T03:08:39;12.50;99.90
30628;DHT22;17394;50.890;4.724;2024-02-16T03:11:05;12.60;99.90
30628;DHT22;17394;50.890;4.724;2024-02-16T03:13:31;12.50;99.90
30628;DHT22;17394;50.890;4.724;2024-02-16T03:15:57;12.50;99.90
30628;DHT22;17394;50.890;4.724;2024-02-16T03:18:23;12.60;99.90
30628;DHT22;17394;50.890;4.724;2024-02-16T03:20:49;12.60;99.90
30628;DHT22;17394;50.890;4.724;2024-02-16T03:23:17;12.50;99.90
30628;DHT22;17394;50.890;4.724;2024-02-16T03:25:43;12.50;99.90
30628;DHT22;17394;50.890;4.724;2024-02-16T03:28:12;12.50;99.90
30628;DHT22;17394;50.890;4.724;2024-02-16T03:30:38;12.50;99.90
30628;DHT22;17394;50.890;4.724;2024-02-16T03:33:04;12.50;99.90
30628;DHT22;17394;50.890;4.724;2024-02-16T03:35:30;12.50;99.90
30628;DHT22;17394;50.890;4.724;2024-02-16T03:37:56;12.60;99.90
30628;DHT22;17394;50.890;4.724;2024-02-16T03:40:25;12.60;99.90
30628;DHT22;17394;50.890;4.724;2024-02-16T03:42:52;12.60;99.90
30628;DHT22;17394;50.890;4.724;2024-02-16T03:45:17;12.70;99.90
30628;DHT22;17394;50.890;4.724;2024-02-16T03:47:43;12.60;99.90
30628;DHT22;17394;50.890;4.724;2024-02-16T03:50:10;12.60;99.90
30628;DHT22;17394;50.890;4.724;2024-02-16T03:52:37;12.60;99.90
30628;DHT22;17394;50.890;4.724;2024-02-16T03:55:03;12.60;99.90
30628;DHT22;17394;50.890;4.724;2024-02-16T03:57:30;12.60;99.90
30628;DHT22;17394;50.890;4.724;2024-02-16T03:59:57;12.70;99.90
30628;DHT22;17394;50.890;4.724;2024-02-16T04:02:22;12.70;99.90
30628;DHT22;17394;50.890;4.724;2024-02-16T04:04:48;12.80;99.90
30628;DHT22;17394;50.890;4.724;2024-02-16T04:07:15;12.80;99.90
30628;DHT22;17394;50.890;4.724;2024-02-16T04:09:41;12.90;99.90
30628;DHT22;17394;50.890;4.724;2024-02-16T04:12:07;13.00;99.90
30628;DHT22;17394;50.890;4.724;2024-02-16T04:14:33;13.10;99.90
30628;DHT22;17394;50.890;4.724;2024-02-16T04:16:59;13.20;99.90
30628;DHT22;17394;50.890;4.724;2024-02-16T04:19:26;13.20;99.90
30628;DHT22;17394;50.890;4.724;2024-02-16T04:21:52;13.30;99.90
30628;DHT22;17394;50.890;4.724;2024-02-16T04:24:18;13.30;99.90
30628;DHT22;17394;50.890;4.724;2024-02-16T04:26:44;13.40;99.90
30628;DHT22;17394;50.890;4.724;2024-02-16T04:29:10;13.40;99.90
30628;DHT22;17394;50.890;4.724;2024-02-16T04:31:41;13.40;99.90
30628;DHT22;17394;50.890;4.724;2024-02-16T04:34:11;13.50;99.90
30628;DHT22;17394;50.890;4.724;2024-02-16T04:36:37;13.50;99.90
30628;DHT22;17394;50.890;4.724;2024-02-16T04:39:03;13.50;99.90
30628;DHT22;17394;50.890;4.724;2024-02-16T04:41:29;13.60;99.90
30628;DHT22;17394;50.890;4.724;2024-02-16T04:43:55;13.60;99.90
30628;DHT22;17394;50.890;4.724;2024-02-16T04:46:21;13.60;99.90
30628;DHT22;17394;50.890;4.724;2024-02-16T04:48:48;13.60;99.90
30628;DHT22;17394;50.890;4.724;2024-02-16T04:51:14;13.60;99.90
30628;DHT22;17394;50.890;4.724;2024-02-16T04:53:39;13.60;99.90
30628;DHT22;17394;50.890;4.724;2024-02-16T04:56:05;13.60;99.90
30628;DHT22;17394;50.890;4.724;2024-02-16T04:58:31;13.60;99.90
30628;DHT22;17394;50.890;4.724;2024-02-16T05:00:57;13.60;99.90
30628;DHT22;17394;50.890;4.724;2024-02-16T05:03:24;13.60;99.90
30628;DHT22;17394;50.890;4.724;2024-02-16T05:05:50;13.60;99.90
30628;DHT22;17394;50.890;4.724;2024-02-16T05:08:17;13.60;99.90
30628;DHT22;17394;50.890;4.724;2024-02-16T05:10:43;13.60;99.90
30628;DHT22;17394;50.890;4.724;2024-02-16T05:13:09;13.60;99.90
30628;DHT22;17394;50.890;4.724;2024-02-16T05:15:36;13.60;99.90
30628;DHT22;17394;50.890;4.724;2024-02-16T05:18:02;13.60;99.90
30628;DHT22;17394;50.890;4.724;2024-02-16T05:20:28;13.60;99.90
30628;DHT22;17394;50.890;4.724;2024-02-16T05:22:54;13.60;99.90
30628;DHT22;17394;50.890;4.724;2024-02-16T05:25:20;13.60;99.90
30628;DHT22;17394;50.890;4.724;2024-02-16T05:27:46;13.60;99.90
30628;DHT22;17394;50.890;4.724;2024-02-16T05:30:13;13.60;99.90
30628;DHT22;17394;50.890;4.724;2024-02-16T05:32:41;13.60;99.90
30628;DHT22;17394;50.890;4.724;2024-02-16T05:35:08;13.50;99.90
30628;DHT22;17394;50.890;4.724;2024-02-16T05:37:39;13.50;99.90
30628;DHT22;17394;50.890;4.724;2024-02-16T05:40:10;13.60;99.90
30628;DHT22;17394;50.890;4.724;2024-02-16T05:42:54;13.60;99.90
30628;DHT22;17394;50.890;4.724;2024-02-16T05:45:24;13.60;99.90
30628;DHT22;17394;50.890;4.724;2024-02-16T05:47:50;13.70;99.90
30628;DHT22;17394;50.890;4.724;2024-02-16T05:50:17;13.70;99.90
30628;DHT22;17394;50.890;4.724;2024-02-16T05:52:44;13.70;99.90
30628;DHT22;17394;50.890;4.724;2024-02-16T05:55:10;13.70;99.90
30628;DHT22;17394;50.890;4.724;2024-02-16T05:57:37;13.70;99.90
30628;DHT22;17394;50.890;4.724;2024-02-16T06:00:07;13.60;99.90
30628;DHT22;17394;50.890;4.724;2024-02-16T06:02:34;13.70;99.90
30628;DHT22;17394;50.890;4.724;2024-02-16T06:05:01;13.70;99.90
30628;DHT22;17394;50.890;4.724;2024-02-16T06:07:28;13.70;99.90
30628;DHT22;17394;50.890;4.724;2024-02-16T06:09:55;13.70;99.90
30628;DHT22;17394;50.890;4.724;2024-02-16T06:12:21;13.60;99.90
30628;DHT22;17394;50.890;4.724;2024-02-16T06:14:47;13.70;99.90
30628;DHT22;17394;50.890;4.724;2024-02-16T06:17:16;13.60;99.90
30628;DHT22;17394;50.890;4.724;2024-02-16T06:19:43;13.70;99.90
30628;DHT22;17394;50.890;4.724;2024-02-16T06:22:09;13.70;99.90
30628;DHT22;17394;50.890;4.724;2024-02-16T06:24:36;13.70;99.90
30628;DHT22;17394;50.890;4.724;2024-02-16T06:27:02;13.70;99.90
30628;DHT22;17394;50.890;4.724;2024-02-16T06:29:29;13.80;99.90
30628;DHT22;17394;50.890;4.724;2024-02-16T06:31:56;13.80;99.90
30628;DHT22;17394;50.890;4.724;2024-02-16T06:34:22;13.80;99.90
30628;DHT22;17394;50.890;4.724;2024-02-16T06:36:48;13.80;99.90
30628;DHT22;17394;50.890;4.724;2024-02-16T06:39:16;13.80;99.90
30628;DHT22;17394;50.890;4.724;2024-02-16T06:41:46;13.70;99.90
30628;DHT22;17394;50.890;4.724;2024-02-16T06:44:13;13.80;99.90
30628;DHT22;17394;50.890;4.724;2024-02-16T06:46:39;13.80;99.90
30628;DHT22;17394;50.890;4.724;2024-02-16T06:49:04;13.80;99.90
30628;DHT22;17394;50.890;4.724;2024-02-16T06:51:30;13.80;99.90
30628;DHT22;17394;50.890;4.724;2024-02-16T06:53:56;13.80;99.90
30628;DHT22;17394;50.890;4.724;2024-02-16T06:56:22;13.80;99.90
30628;DHT22;17394;50.890;4.724;2024-02-16T06:58:48;13.80;99.90
30628;DHT22;17394;50.890;4.724;2024-02-16T07:01:14;13.90;99.90
30628;DHT22;17394;50.890;4.724;2024-02-16T07:03:41;13.90;99.90
30628;DHT22;17394;50.890;4.724;2024-02-16T07:06:07;13.90;99.90
30628;DHT22;17394;50.890;4.724;2024-02-16T07:08:36;13.80;99.90
30628;DHT22;17394;50.890;4.724;2024-02-16T07:11:04;13.90;99.90
30628;DHT22;17394;50.890;4.724;2024-02-16T07:13:33;13.90;99.90
30628;DHT22;17394;50.890;4.724;2024-02-16T07:15:59;13.90;99.90
30628;DHT22;17394;50.890;4.724;2024-02-16T07:18:25;13.90;99.90
30628;DHT22;17394;50.890;4.724;2024-02-16T07:20:51;13.90;99.90
30628;DHT22;17394;50.890;4.724;2024-02-16T07:23:16;13.90;99.90
30628;DHT22;17394;50.890;4.724;2024-02-16T07:25:43;13.90;99.90
30628;DHT22;17394;50.890;4.724;2024-02-16T07:28:09;13.90;99.90
30628;DHT22;17394;50.890;4.724;2024-02-16T07:30:35;13.90;99.90
30628;DHT22;17394;50.890;4.724;2024-02-16T07:33:05;13.90;99.90
30628;DHT22;17394;50.890;4.724;2024-02-16T07:35:36;13.90;99.90
30628;DHT22;17394;50.890;4.724;2024-02-16T07:38:02;14.00;99.90
30628;DHT22;17394;50.890;4.724;2024-02-16T07:40:29;14.00;99.90
30628;DHT22;17394;50.890;4.724;2024-02-16T07:42:54;14.00;99.90
30628;DHT22;17394;50.890;4.724;2024-02-16T07:45:21;14.00;99.90
30628;DHT22;17394;50.890;4.724;2024-02-16T07:47:47;14.00;99.90
30628;DHT22;17394;50.890;4.724;2024-02-16T07:50:12;14.10;99.90
30628;DHT22;17394;50.890;4.724;2024-02-16T07:52:39;14.10;99.90
30628;DHT22;17394;50.890;4.724;2024-02-16T07:55:08;14.10;99.90
30628;DHT22;17394;50.890;4.724;2024-02-16T07:57:35;14.20;99.90
30628;DHT22;17394;50.890;4.724;2024-02-16T08:00:02;14.20;99.90
30628;DHT22;17394;50.890;4.724;2024-02-16T08:02:29;14.20;99.90
30628;DHT22;17394;50.890;4.724;2024-02-16T08:04:54;14.20;99.90
30628;DHT22;17394;50.890;4.724;2024-02-16T08:07:21;14.30;99.90
30628;DHT22;17394;50.890;4.724;2024-02-16T08:09:47;14.30;99.90
30628;DHT22;17394;50.890;4.724;2024-02-16T08:12:13;14.30;99.90
30628;DHT22;17394;50.890;4.724;2024-02-16T08:14:39;14.30;99.90
30628;DHT22;17394;50.890;4.724;2024-02-16T08:17:09;14.20;99.90
30628;DHT22;17394;50.890;4.724;2024-02-16T08:19:36;14.20;99.90
30628;DHT22;17394;50.890;4.724;2024-02-16T08:22:04;14.10;99.90
30628;DHT22;17394;50.890;4.724;2024-02-16T08:24:36;14.00;99.90
30628;DHT22;17394;50.890;4.724;2024-02-16T08:27:03;13.90;99.90
30628;DHT22;17394;50.890;4.724;2024-02-16T08:29:32;13.80;99.90
30628;DHT22;17394;50.890;4.724;2024-02-16T08:31:58;13.60;99.90
30628;DHT22;17394;50.890;4.724;2024-02-16T08:34:24;13.50;99.90
30628;DHT22;17394;50.890;4.724;2024-02-16T08:36:51;13.40;99.90
30628;DHT22;17394;50.890;4.724;2024-02-16T08:39:17;13.30;99.90
30628;DHT22;17394;50.890;4.724;2024-02-16T08:41:45;13.30;99.90
30628;DHT22;17394;50.890;4.724;2024-02-16T08:44:13;13.20;99.90
30628;DHT22;17394;50.890;4.724;2024-02-16T08:46:40;13.20;99.90
30628;DHT22;17394;50.890;4.724;2024-02-16T08:49:06;13.20;99.90
30628;DHT22;17394;50.890;4.724;2024-02-16T08:51:33;13.20;99.90
30628;DHT22;17394;50.890;4.724;2024-02-16T08:53:59;13.30;99.90
30628;DHT22;17394;50.890;4.724;2024-02-16T08:56:25;13.30;99.90
30628;DHT22;17394;50.890;4.724;2024-02-16T08:58:52;13.30;99.90
30628;DHT22;17394;50.890;4.724;2024-02-16T09:01:17;13.40;99.90
30628;DHT22;17394;50.890;4.724;2024-02-16T09:03:43;13.50;99.90
30628;DHT22;17394;50.890;4.724;2024-02-16T09:06:09;13.50;99.90
30628;DHT22;17394;50.890;4.724;2024-02-16T09:08:35;13.60;99.90
30628;DHT22;17394;50.890;4.724;2024-02-16T09:11:01;13.60;99.90
30628;DHT22;17394;50.890;4.724;2024-02-16T09:13:34;13.60;99.90
30628;DHT22;17394;50.890;4.724;2024-02-16T09:16:02;13.70;99.90
30628;DHT22;17394;50.890;4.724;2024-02-16T09:18:31;13.70;99.90
30628;DHT22;17394;50.890;4.724;2024-02-16T09:20:57;13.70;99.90
30628;DHT22;17394;50.890;4.724;2024-02-16T09:23:23;13.80;99.90
30628;DHT22;17394;50.890;4.724;2024-02-16T09:25:49;13.90;99.90
30628;DHT22;17394;50.890;4.724;2024-02-16T09:28:17;13.90;99.90
30628;DHT22;17394;50.890;4.724;2024-02-16T09:30:44;14.00;99.90
30628;DHT22;17394;50.890;4.724;2024-02-16T09:33:10;14.10;99.90
30628;DHT22;17394;50.890;4.724;2024-02-16T09:35:36;14.10;99.90
30628;DHT22;17394;50.890;4.724;2024-02-16T09:38:02;14.10;99.90
30628;DHT22;17394;50.890;4.724;2024-02-16T09:40:28;14.10;99.90
30628;DHT22;17394;50.890;4.724;2024-02-16T09:42:54;14.10;99.90
30628;DHT22;17394;50.890;4.724;2024-02-16T09:45:20;14.10;99.90
30628;DHT22;17394;50.890;4.724;2024-02-16T09:47:47;14.10;99.90
30628;DHT22;17394;50.890;4.724;2024-02-16T09:50:15;14.10;99.90
30628;DHT22;17394;50.890;4.724;2024-02-16T09:52:42;14.10;99.90
30628;DHT22;17394;50.890;4.724;2024-02-16T09:55:13;14.10;99.90
30628;DHT22;17394;50.890;4.724;2024-02-16T09:57:39;14.00;99.90
30628;DHT22;17394;50.890;4.724;2024-02-16T10:00:05;14.00;99.90
30628;DHT22;17394;50.890;4.724;2024-02-16T10:05:19;14.00;99.90
30628;DHT22;17394;50.890;4.724;2024-02-16T10:07:46;14.00;99.90
30628;DHT22;17394;50.890;4.724;2024-02-16T10:10:26;14.00;99.90
30628;DHT22;17394;50.890;4.724;2024-02-16T10:13:05;14.10;99.90
30628;DHT22;17394;50.890;4.724;2024-02-16T10:15:32;14.10;99.90
30628;DHT22;17394;50.890;4.724;2024-02-16T10:18:07;14.10;99.90
30628;DHT22;17394;50.890;4.724;2024-02-16T10:20:34;14.10;99.90
30628;DHT22;17394;50.890;4.724;2024-02-16T10:23:13;14.10;99.90
30628;DHT22;17394;50.890;4.724;2024-02-16T10:25:40;14.10;99.90
30628;DHT22;17394;50.890;4.724;2024-02-16T10:28:10;14.10;99.90
30628;DHT22;17394;50.890;4.724;2024-02-16T10:30:41;14.10;99.90
30628;DHT22;17394;50.890;4.724;2024-02-16T10:33:09;14.10;99.90
30628;DHT22;17394;50.890;4.724;2024-02-16T10:35:36;14.20;99.90
30628;DHT22;17394;50.890;4.724;2024-02-16T10:38:04;14.20;99.90
30628;DHT22;17394;50.890;4.724;2024-02-16T10:40:38;14.30;99.90
30628;DHT22;17394;50.890;4.724;2024-02-16T10:43:05;14.40;99.90
30628;DHT22;17394;50.890;4.724;2024-02-16T10:45:33;14.50;99.90
30628;DHT22;17394;50.890;4.724;2024-02-16T10:48:00;14.60;99.90
30628;DHT22;17394;50.890;4.724;2024-02-16T10:50:27;14.70;99.90
30628;DHT22;17394;50.890;4.724;2024-02-16T10:52:56;14.70;99.90
30628;DHT22;17394;50.890;4.724;2024-02-16T10:55:23;14.70;99.90
30628;DHT22;17394;50.890;4.724;2024-02-16T10:57:50;14.70;99.90
30628;DHT22;17394;50.890;4.724;2024-02-16T11:00:16;14.60;99.90
30628;DHT22;17394;50.890;4.724;2024-02-16T11:02:59;14.60;99.90
30628;DHT22;17394;50.890;4.724;2024-02-16T11:05:40;14.60;99.90
30628;DHT22;17394;50.890;4.724;2024-02-16T11:08:14;14.50;99.90
30628;DHT22;17394;50.890;4.724;2024-02-16T11:10:40;14.50;99.90
30628;DHT22;17394;50.890;4.724;2024-02-16T11:13:06;14.50;99.90
30628;DHT22;17394;50.890;4.724;2024-02-16T11:15:34;14.50;99.90
30628;DHT22;17394;50.890;4.724;2024-02-16T11:18:03;14.50;99.90
30628;DHT22;17394;50.890;4.724;2024-02-16T11:20:35;14.50;99.90
30628;DHT22;17394;50.890;4.724;2024-02-16T11:23:06;14.50;99.90
30628;DHT22;17394;50.890;4.724;2024-02-16T11:25:33;14.50;99.90
30628;DHT22;17394;50.890;4.724;2024-02-16T11:27:59;14.50;99.90
30628;DHT22;17394;50.890;4.724;2024-02-16T11:30:25;14.50;99.90
30628;DHT22;17394;50.890;4.724;2024-02-16T11:32:52;14.50;99.90
30628;DHT22;17394;50.890;4.724;2024-02-16T11:35:17;14.50;99.90
30628;DHT22;17394;50.890;4.724;2024-02-16T11:37:44;14.50;99.90
30628;DHT22;17394;50.890;4.724;2024-02-16T11:40:13;14.50;99.90
30628;DHT22;17394;50.890;4.724;2024-02-16T11:42:38;14.40;99.90
30628;DHT22;17394;50.890;4.724;2024-02-16T11:45:05;14.40;99.90
30628;DHT22;17394;50.890;4.724;2024-02-16T11:47:32;14.40;99.90
30628;DHT22;17394;50.890;4.724;2024-02-16T11:52:31;14.30;99.90
30628;DHT22;17394;50.890;4.724;2024-02-16T11:54:57;14.20;99.90
30628;DHT22;17394;50.890;4.724;2024-02-16T11:57:26;14.20;99.90
30628;DHT22;17394;50.890;4.724;2024-02-16T11:59:53;14.10;99.90
30628;DHT22;17394;50.890;4.724;2024-02-16T12:02:20;14.00;99.90
30628;DHT22;17394;50.890;4.724;2024-02-16T12:04:58;14.00;99.90
30628;DHT22;17394;50.890;4.724;2024-02-16T12:07:28;13.90;99.90
30628;DHT22;17394;50.890;4.724;2024-02-16T12:10:00;13.90;99.90
30628;DHT22;17394;50.890;4.724;2024-02-16T12:12:27;13.90;99.90
30628;DHT22;17394;50.890;4.724;2024-02-16T12:14:54;13.90;99.90
30628;DHT22;17394;50.890;4.724;2024-02-16T12:17:20;13.90;99.90
30628;DHT22;17394;50.890;4.724;2024-02-16T12:19:46;13.90;99.90
30628;DHT22;17394;50.890;4.724;2024-02-16T12:22:20;13.90;99.90
30628;DHT22;17394;50.890;4.724;2024-02-16T12:24:50;13.90;99.90
30628;DHT22;17394;50.890;4.724;2024-02-16T12:27:16;13.80;99.90
30628;DHT22;17394;50.890;4.724;2024-02-16T12:29:42;13.80;99.90
30628;DHT22;17394;50.890;4.724;2024-02-16T12:32:09;13.70;99.90
30628;DHT22;17394;50.890;4.724;2024-02-16T12:34:37;13.70;99.90
30628;DHT22;17394;50.890;4.724;2024-02-16T12:37:06;13.60;99.90
30628;DHT22;17394;50.890;4.724;2024-02-16T12:39:33;13.50;99.90
30628;DHT22;17394;50.890;4.724;2024-02-16T12:42:00;13.40;99.90
30628;DHT22;17394;50.890;4.724;2024-02-16T12:44:26;13.40;99.90
30628;DHT22;17394;50.890;4.724;2024-02-16T12:46:51;13.30;99.90
30628;DHT22;17394;50.890;4.724;2024-02-16T12:49:17;13.30;99.90
30628;DHT22;17394;50.890;4.724;2024-02-16T12:51:50;13.30;99.90
30628;DHT22;17394;50.890;4.724;2024-02-16T12:54:17;13.30;99.90
30628;DHT22;17394;50.890;4.724;2024-02-16T12:56:46;13.30;99.90
30628;DHT22;17394;50.890;4.724;2024-02-16T12:59:12;13.20;99.90
30628;DHT22;17394;50.890;4.724;2024-02-16T13:01:37;13.20;99.90
30628;DHT22;17394;50.890;4.724;2024-02-16T13:04:03;13.20;99.90
30628;DHT22;17394;50.890;4.724;2024-02-16T13:06:31;13.20;99.90
30628;DHT22;17394;50.890;4.724;2024-02-16T13:08:57;13.20;99.90
30628;DHT22;17394;50.890;4.724;2024-02-16T13:11:22;13.10;99.90
30628;DHT22;17394;50.890;4.724;2024-02-16T13:13:48;13.10;99.90
30628;DHT22;17394;50.890;4.724;2024-02-16T13:16:14;13.10;99.90
30628;DHT22;17394;50.890;4.724;2024-02-16T13:18:40;13.00;99.90
30628;DHT22;17394;50.890;4.724;2024-02-16T13:21:06;13.00;99.90
30628;DHT22;17394;50.890;4.724;2024-02-16T13:23:32;12.90;99.90
30628;DHT22;17394;50.890;4.724;2024-02-16T13:25:58;13.00;99.90
30628;DHT22;17394;50.890;4.724;2024-02-16T13:28:24;12.90;99.90
30628;DHT22;17394;50.890;4.724;2024-02-16T13:30:50;12.90;99.90
30628;DHT22;17394;50.890;4.724;2024-02-16T13:33:16;12.80;99.90
30628;DHT22;17394;50.890;4.724;2024-02-16T13:35:42;12.80;99.90
30628;DHT22;17394;50.890;4.724;2024-02-16T13:38:08;12.80;99.90
30628;DHT22;17394;50.890;4.724;2024-02-16T13:40:34;12.80;99.90
30628;DHT22;17394;50.890;4.724;2024-02-16T13:43:01;12.80;99.90
30628;DHT22;17394;50.890;4.724;2024-02-16T13:45:51;12.80;99.90
30628;DHT22;17394;50.890;4.724;2024-02-16T13:48:17;12.90;99.90
30628;DHT22;17394;50.890;4.724;2024-02-16T13:50:54;12.90;99.90
30628;DHT22;17394;50.890;4.724;2024-02-16T13:53:20;12.90;99.90
30628;DHT22;17394;50.890;4.724;2024-02-16T13:55:49;12.90;99.90
30628;DHT22;17394;50.890;4.724;2024-02-16T13:58:15;12.90;99.90
30628;DHT22;17394;50.890;4.724;2024-02-16T14:00:41;13.00;99.90
30628;DHT22;17394;50.890;4.724;2024-02-16T14:03:09;13.00;99.90
30628;DHT22;17394;50.890;4.724;2024-02-16T14:05:40;13.10;99.90
30628;DHT22;17394;50.890;4.724;2024-02-16T14:08:07;13.10;99.90
30628;DHT22;17394;50.890;4.724;2024-02-16T14:10:37;13.20;99.90
30628;DHT22;17394;50.890;4.724;2024-02-16T14:13:02;13.30;99.90
30628;DHT22;17394;50.890;4.724;2024-02-16T14:15:28;13.40;99.90
30628;DHT22;17394;50.890;4.724;2024-02-16T14:17:54;13.40;99.90
30628;DHT22;17394;50.890;4.724;2024-02-16T14:20:20;13.40;99.90
30628;DHT22;17394;50.890;4.724;2024-02-16T14:22:49;13.30;99.90
30628;DHT22;17394;50.890;4.724;2024-02-16T14:25:15;13.40;99.90
30628;DHT22;17394;50.890;4.724;2024-02-16T14:27:41;13.40;99.90
30628;DHT22;17394;50.890;4.724;2024-02-16T14:30:11;13.40;99.90
30628;DHT22;17394;50.890;4.724;2024-02-16T14:32:37;13.30;99.90
30628;DHT22;17394;50.890;4.724;2024-02-16T14:35:04;13.30;99.90
30628;DHT22;17394;50.890;4.724;2024-02-16T14:37:32;13.20;99.90
30628;DHT22;17394;50.890;4.724;2024-02-16T14:39:58;13.20;99.90
30628;DHT22;17394;50.890;4.724;2024-02-16T14:42:25;13.30;99.90
30628;DHT22;17394;50.890;4.724;2024-02-16T14:44:51;13.40;99.90
30628;DHT22;17394;50.890;4.724;2024-02-16T14:47:17;13.40;99.90
30628;DHT22;17394;50.890;4.724;2024-02-16T14:49:43;13.40;99.90
30628;DHT22;17394;50.890;4.724;2024-02-16T14:52:09;13.40;99.90
30628;DHT22;17394;50.890;4.724;2024-02-16T14:54:35;13.40;99.90
30628;DHT22;17394;50.890;4.724;2024-02-16T14:57:01;13.40;99.90
30628;DHT22;17394;50.890;4.724;2024-02-16T14:59:28;13.40;99.90
30628;DHT22;17394;50.890;4.724;2024-02-16T15:01:56;13.40;99.90
30628;DHT22;17394;50.890;4.724;2024-02-16T15:04:22;13.40;99.90
30628;DHT22;17394;50.890;4.724;2024-02-16T15:06:48;13.40;99.90
30628;DHT22;17394;50.890;4.724;2024-02-16T15:09:13;13.30;99.90
30628;DHT22;17394;50.890;4.724;2024-02-16T15:11:39;13.30;99.90
30628;DHT22;17394;50.890;4.724;2024-02-16T15:14:05;13.20;99.90
30628;DHT22;17394;50.890;4.724;2024-02-16T15:16:32;13.20;99.90
30628;DHT22;17394;50.890;4.724;2024-02-16T15:18:57;13.20;99.90
30628;DHT22;17394;50.890;4.724;2024-02-16T15:21:26;13.10;99.90
30628;DHT22;17394;50.890;4.724;2024-02-16T15:23:53;13.10;99.90
30628;DHT22;17394;50.890;4.724;2024-02-16T15:26:18;13.10;99.90
30628;DHT22;17394;50.890;4.724;2024-02-16T15:28:44;13.20;99.90
30628;DHT22;17394;50.890;4.724;2024-02-16T15:31:10;13.20;99.90
30628;DHT22;17394;50.890;4.724;2024-02-16T15:33:36;13.20;99.90